createdAt,value
2023-03-08T00:01:28.656Z,5.50
2023-03-08T00:03:59.837Z,5.45
2023-03-08T00:06:27.163Z,5.34
2023-03-08T00:08:58.882Z,5.41
2023-03-08T00:11:30.927Z,5.40
2023-03-08T00:13:58.487Z,5.34
2023-03-08T00:16:27.546Z,5.44
2023-03-08T00:18:54.784Z,5.29
2023-03-08T00:21:21.888Z,5.27
2023-03-08T00:23:51.514Z,5.24
2023-03-08T00:26:17.926Z,5.19
2023-03-08T00:28:47.352Z,5.13
2023-03-08T00:31:15.330Z,5.17
2023-03-08T00:33:46.666Z,5.24
2023-03-08T00:36:28.862Z,5.26
2023-03-08T00:38:59.833Z,5.30
2023-03-08T00:41:36.220Z,5.34
2023-03-08T00:44:02.940Z,5.28
2023-03-08T00:46:37.100Z,5.21
2023-03-08T00:49:06.379Z,5.17
2023-03-08T00:51:37.086Z,5.14
2023-03-08T00:54:03.894Z,5.14
2023-03-08T00:56:50.929Z,5.14
2023-03-08T00:59:18.608Z,5.02
2023-03-08T01:01:44.960Z,4.96
2023-03-08T01:04:13.103Z,4.94
2023-03-08T01:06:48.405Z,4.84
2023-03-08T01:09:14.934Z,4.85
2023-03-08T01:11:49.066Z,4.77
2023-03-08T01:14:17.958Z,4.73
2023-03-08T01:16:47.099Z,4.79
2023-03-08T01:19:15.737Z,4.83
2023-03-08T01:21:42.191Z,4.84
2023-03-08T01:24:10.813Z,4.88
2023-03-08T01:26:37.217Z,4.84
2023-03-08T01:29:12.086Z,4.81
2023-03-08T01:31:46.053Z,4.83
2023-03-08T01:34:14.978Z,4.86
2023-03-08T01:36:41.522Z,4.94
2023-03-08T01:39:07.953Z,4.96
2023-03-08T01:41:45.818Z,4.93
2023-03-08T01:44:27.772Z,4.96
2023-03-08T01:46:54.160Z,4.95
2023-03-08T01:49:30.142Z,5.01
2023-03-08T01:52:02.931Z,5.00
2023-03-08T01:54:43.917Z,5.02
2023-03-08T01:57:27.232Z,5.14
2023-03-08T01:59:57.393Z,5.21
2023-03-08T02:02:32.349Z,5.16
2023-03-08T02:05:01.139Z,5.12
2023-03-08T02:07:27.626Z,5.09
2023-03-08T02:09:54.793Z,5.13
2023-03-08T02:12:23.766Z,5.10
2023-03-08T02:14:50.400Z,5.10
2023-03-08T02:17:21.867Z,5.04
2023-03-08T02:19:59.998Z,5.01
2023-03-08T02:22:26.876Z,5.00
2023-03-08T02:25:03.950Z,4.95
2023-03-08T02:27:30.784Z,4.86
2023-03-08T02:29:57.249Z,4.83
2023-03-08T02:32:28.094Z,4.79
2023-03-08T02:34:54.624Z,4.71
2023-03-08T02:37:21.128Z,4.62
2023-03-08T02:39:47.619Z,4.55
2023-03-08T02:42:15.362Z,4.49
2023-03-08T02:44:41.987Z,4.44
2023-03-08T02:47:08.972Z,4.39
2023-03-08T02:49:35.460Z,4.31
2023-03-08T02:52:03.528Z,4.28
2023-03-08T02:54:30.192Z,4.34
2023-03-08T02:56:59.643Z,4.33
2023-03-08T02:59:31.513Z,4.35
2023-03-08T03:01:58.048Z,4.32
2023-03-08T03:04:24.527Z,4.30
2023-03-08T03:06:51.400Z,4.27
2023-03-08T03:09:17.860Z,4.27
2023-03-08T03:11:46.818Z,4.25
2023-03-08T03:14:13.422Z,4.22
2023-03-08T03:16:40.028Z,4.22
2023-03-08T03:19:09.535Z,4.21
2023-03-08T03:21:37.855Z,4.20
2023-03-08T03:24:06.842Z,4.25
2023-03-08T03:26:33.455Z,4.25
2023-03-08T03:29:00.411Z,4.24
2023-03-08T03:31:27.608Z,4.26
2023-03-08T03:33:54.614Z,4.28
2023-03-08T03:36:22.233Z,4.26
2023-03-08T03:38:51.460Z,4.27
2023-03-08T03:41:23.301Z,4.23
2023-03-08T03:43:50.100Z,4.22
2023-03-08T03:46:19.238Z,4.19
2023-03-08T03:48:46.536Z,4.16
2023-03-08T03:51:15.593Z,4.14
2023-03-08T03:53:42.356Z,4.13
2023-03-08T03:56:20.912Z,4.09
2023-03-08T03:58:47.689Z,4.10
2023-03-08T04:01:22.826Z,4.11
2023-03-08T04:03:49.476Z,4.10
2023-03-08T04:06:21.524Z,4.07
2023-03-08T04:08:52.452Z,4.12
2023-03-08T04:11:22.308Z,4.10
2023-03-08T04:13:52.050Z,4.09
2023-03-08T04:16:29.423Z,4.16
2023-03-08T04:19:01.844Z,4.18
2023-03-08T04:21:31.813Z,4.20
2023-03-08T04:24:03.811Z,4.26
2023-03-08T04:26:32.773Z,4.26
2023-03-08T04:29:01.171Z,4.26
2023-03-08T04:31:29.680Z,4.24
2023-03-08T04:33:56.346Z,4.23
2023-03-08T04:36:23.219Z,4.24
2023-03-08T04:39:04.136Z,4.23
2023-03-08T04:41:32.698Z,4.23
2023-03-08T04:43:59.346Z,4.24
2023-03-08T04:46:27.664Z,4.22
2023-03-08T04:48:58.807Z,4.22
2023-03-08T04:51:26.666Z,4.23
2023-03-08T04:53:58.835Z,4.24
2023-03-08T04:56:34.278Z,4.23
2023-03-08T04:59:00.845Z,4.21
2023-03-08T05:01:34.580Z,4.24
2023-03-08T05:04:03.670Z,4.19
2023-03-08T05:06:33.731Z,4.18
2023-03-08T05:09:05.902Z,4.19
2023-03-08T05:11:35.677Z,4.16
2023-03-08T05:14:04.725Z,4.15
2023-03-08T05:16:31.384Z,4.14
2023-03-08T05:18:57.880Z,4.16
2023-03-08T05:21:24.651Z,4.15
2023-03-08T05:23:51.064Z,4.14
2023-03-08T05:26:18.349Z,4.15
2023-03-08T05:28:51.060Z,4.13
2023-03-08T05:31:23.206Z,4.14
2023-03-08T05:33:51.565Z,4.10
2023-03-08T05:36:21.886Z,4.12
2023-03-08T05:38:48.501Z,4.09
2023-03-08T05:41:16.573Z,4.07
2023-03-08T05:43:51.913Z,4.06
2023-03-08T05:46:19.769Z,4.05
2023-03-08T05:48:46.541Z,4.07
2023-03-08T05:51:21.161Z,4.10
2023-03-08T05:53:50.340Z,4.12
2023-03-08T05:56:28.276Z,4.08
2023-03-08T05:58:55.503Z,4.09
2023-03-08T06:01:31.186Z,4.07
2023-03-08T06:04:03.371Z,4.04
2023-03-08T06:06:30.226Z,4.06
2023-03-08T06:09:03.981Z,4.04
2023-03-08T06:11:30.523Z,4.10
2023-03-08T06:13:57.144Z,4.12
2023-03-08T06:16:23.638Z,4.11
2023-03-08T06:18:50.194Z,4.10
2023-03-08T06:21:21.307Z,4.14
2023-03-08T06:23:47.954Z,4.15
2023-03-08T06:26:17.083Z,4.16
2023-03-08T06:28:46.276Z,4.22
2023-03-08T06:31:15.164Z,4.23
2023-03-08T06:33:42.882Z,4.25
2023-03-08T06:36:12.810Z,4.25
2023-03-08T06:38:41.083Z,4.26
2023-03-08T06:41:09.395Z,4.29
2023-03-08T06:43:36.620Z,4.27
2023-03-08T06:46:07.872Z,4.27
2023-03-08T06:48:37.446Z,4.29
2023-03-08T06:51:05.454Z,4.28
2023-03-08T06:53:33.395Z,4.34
2023-03-08T06:56:02.979Z,4.37
2023-03-08T06:58:29.483Z,4.38
2023-03-08T07:01:04.262Z,4.42
2023-03-08T07:03:33.566Z,4.41
2023-03-08T07:06:01.392Z,4.42
2023-03-08T07:08:28.275Z,4.46
2023-03-08T07:10:58.765Z,4.48
2023-03-08T07:13:25.718Z,4.53
2023-03-08T07:15:52.403Z,4.52
2023-03-08T07:18:22.407Z,4.52
2023-03-08T07:21:02.643Z,4.54
2023-03-08T07:23:29.225Z,4.53
2023-03-08T07:25:55.934Z,4.50
2023-03-08T07:28:22.435Z,4.41
2023-03-08T07:30:51.284Z,4.34
2023-03-08T07:33:18.286Z,4.24
2023-03-08T07:35:44.993Z,4.18
2023-03-08T07:38:12.514Z,4.08
2023-03-08T07:40:39.164Z,4.00
2023-03-08T07:43:06.338Z,3.94
2023-03-08T07:45:33.032Z,3.94
2023-03-08T07:48:01.852Z,3.90
2023-03-08T07:50:31.104Z,3.83
2023-03-08T07:52:59.915Z,3.82
2023-03-08T07:55:28.744Z,3.78
2023-03-08T07:57:57.730Z,3.68
2023-03-08T08:00:24.629Z,3.62
2023-03-08T08:02:53.968Z,3.59
2023-03-08T08:05:22.246Z,3.57
2023-03-08T08:07:49.178Z,3.49
2023-03-08T08:10:15.931Z,3.35
2023-03-08T08:12:47.401Z,3.26
2023-03-08T08:15:16.796Z,3.12
2023-03-08T08:17:47.887Z,3.05
2023-03-08T08:20:14.767Z,2.95
2023-03-08T08:22:41.387Z,2.83
2023-03-08T08:25:08.343Z,2.92
2023-03-08T08:27:35.877Z,2.82
2023-03-08T08:30:04.362Z,2.79
2023-03-08T08:32:35.715Z,2.69
2023-03-08T08:35:02.470Z,2.61
2023-03-08T08:37:30.330Z,2.58
2023-03-08T08:39:56.878Z,2.59
2023-03-08T08:42:23.881Z,2.56
2023-03-08T08:44:50.347Z,2.44
2023-03-08T08:47:16.720Z,2.35
2023-03-08T08:49:45.670Z,2.41
2023-03-08T08:52:14.438Z,2.30
2023-03-08T08:54:41.168Z,2.43
2023-03-08T08:57:07.741Z,2.65
2023-03-08T08:59:34.376Z,2.57
2023-03-08T09:02:00.847Z,2.58
2023-03-08T09:04:27.405Z,2.56
2023-03-08T09:06:54.233Z,2.65
2023-03-08T09:09:20.750Z,2.60
2023-03-08T09:11:54.598Z,2.59
2023-03-08T09:14:21.795Z,2.67
2023-03-08T09:16:48.256Z,2.68
2023-03-08T09:19:16.993Z,2.68
2023-03-08T09:21:43.388Z,2.81
2023-03-08T09:24:11.440Z,2.86
2023-03-08T09:26:37.961Z,2.95
2023-03-08T09:29:05.539Z,3.01
2023-03-08T09:31:35.724Z,3.07
2023-03-08T09:34:08.883Z,3.10
2023-03-08T09:36:37.294Z,3.18
2023-03-08T09:39:04.165Z,3.29
2023-03-08T09:41:50.883Z,3.32
2023-03-08T09:44:43.661Z,3.43
2023-03-08T09:47:19.363Z,3.50
2023-03-08T09:49:49.154Z,3.50
2023-03-08T09:52:38.435Z,3.47
2023-03-08T09:55:12.601Z,3.55
2023-03-08T09:57:46.207Z,3.65
2023-03-08T10:00:30.471Z,3.59
2023-03-08T10:03:37.533Z,3.61
2023-03-08T10:06:34.087Z,3.71
2023-03-08T10:09:16.550Z,3.81
2023-03-08T10:11:50.062Z,3.89
2023-03-08T10:14:24.019Z,3.85
2023-03-08T10:16:55.853Z,3.82
2023-03-08T10:19:30.430Z,3.90
2023-03-08T10:22:03.805Z,3.88
2023-03-08T10:24:41.661Z,3.98
2023-03-08T10:27:19.887Z,3.89
2023-03-08T10:29:55.086Z,3.85
2023-03-08T10:32:22.850Z,3.90
2023-03-08T10:34:50.421Z,4.05
2023-03-08T10:37:19.474Z,4.09
2023-03-08T10:39:54.977Z,4.10
2023-03-08T10:42:27.426Z,4.17
2023-03-08T10:44:53.696Z,4.17
2023-03-08T10:47:30.915Z,4.20
2023-03-08T10:50:06.356Z,4.22
2023-03-08T10:52:35.571Z,4.31
2023-03-08T10:55:10.599Z,4.36
2023-03-08T10:57:41.095Z,4.48
2023-03-08T11:00:21.194Z,4.44
2023-03-08T11:03:01.717Z,4.44
2023-03-08T11:05:29.455Z,4.47
2023-03-08T11:07:59.746Z,4.56
2023-03-08T11:10:28.015Z,4.58
2023-03-08T11:13:32.584Z,4.61
2023-03-08T11:16:07.156Z,4.67
2023-03-08T11:19:01.761Z,4.77
2023-03-08T11:22:03.758Z,4.88
2023-03-08T11:25:01.311Z,4.93
2023-03-08T11:27:33.488Z,5.01
2023-03-08T11:30:26.264Z,5.06
2023-03-08T11:33:18.780Z,5.05
2023-03-08T11:36:16.348Z,5.10
2023-03-08T11:38:54.504Z,5.11
2023-03-08T11:41:23.730Z,5.16
2023-03-08T11:44:16.415Z,5.18
2023-03-08T11:46:45.682Z,5.22
2023-03-08T11:49:49.802Z,5.18
2023-03-08T11:52:33.555Z,5.22
2023-03-08T11:55:35.237Z,5.29
2023-03-08T11:58:36.884Z,5.39
2023-03-08T12:01:16.771Z,5.44
2023-03-08T12:04:04.408Z,5.52
2023-03-08T12:06:40.787Z,5.55
2023-03-08T12:09:34.523Z,5.63
2023-03-08T12:12:18.751Z,5.64
2023-03-08T12:14:56.014Z,5.72
2023-03-08T12:17:34.460Z,5.80
2023-03-08T12:20:00.915Z,5.90
2023-03-08T12:22:44.432Z,5.93
2023-03-08T12:25:30.631Z,5.99
2023-03-08T12:28:04.786Z,6.01
2023-03-08T12:30:49.562Z,6.11
2023-03-08T12:33:17.290Z,6.16
2023-03-08T12:35:55.816Z,6.24
2023-03-08T12:38:25.328Z,6.31
2023-03-08T12:40:54.680Z,6.36
2023-03-08T12:43:21.128Z,6.48
2023-03-08T12:46:01.443Z,6.45
2023-03-08T12:48:54.568Z,6.57
2023-03-08T12:51:26.956Z,6.64
2023-03-08T12:54:02.438Z,6.82
2023-03-08T12:56:38.220Z,7.05
2023-03-08T12:59:10.705Z,7.11
2023-03-08T13:02:00.348Z,7.19
2023-03-08T13:04:41.720Z,7.31
2023-03-08T13:07:14.796Z,7.37
2023-03-08T13:09:41.312Z,7.43
2023-03-08T13:12:32.127Z,7.44
2023-03-08T13:15:22.998Z,7.43
2023-03-08T13:17:59.910Z,7.49
2023-03-08T13:20:42.283Z,7.57
2023-03-08T13:23:14.831Z,7.62
2023-03-08T13:26:15.060Z,7.61
2023-03-08T13:28:48.439Z,7.70
2023-03-08T13:31:19.583Z,7.80
2023-03-08T13:33:50.486Z,7.82
2023-03-08T13:36:19.245Z,7.83
2023-03-08T13:39:01.079Z,7.82
2023-03-08T13:41:36.826Z,7.82
2023-03-08T13:44:07.434Z,7.86
2023-03-08T13:46:49.098Z,7.88
2023-03-08T13:49:29.538Z,7.90
2023-03-08T13:52:01.735Z,7.91
2023-03-08T13:54:39.879Z,7.91
2023-03-08T13:57:17.759Z,7.93
2023-03-08T14:00:11.261Z,7.91
2023-03-08T14:02:46.381Z,7.92
2023-03-08T14:05:21.120Z,7.92
2023-03-08T14:08:05.508Z,7.93
2023-03-08T14:10:39.034Z,7.94
2023-03-08T14:13:12.857Z,7.95
2023-03-08T14:15:39.845Z,8.00
2023-03-08T14:18:21.003Z,8.06
2023-03-08T14:21:05.223Z,8.14
2023-03-08T14:23:40.407Z,8.31
2023-03-08T14:26:33.920Z,8.30
2023-03-08T14:29:19.787Z,8.34
2023-03-08T14:32:05.576Z,8.39
2023-03-08T14:34:52.452Z,8.43
2023-03-08T14:37:30.665Z,8.43
2023-03-08T14:40:24.318Z,8.49
2023-03-08T14:42:55.210Z,8.59
2023-03-08T14:45:35.193Z,8.69
2023-03-08T14:48:24.773Z,8.67
2023-03-08T14:50:52.868Z,8.66
2023-03-08T14:53:36.048Z,8.55
2023-03-08T14:56:18.799Z,8.71
2023-03-08T14:58:57.954Z,8.84
2023-03-08T15:01:34.015Z,8.83
2023-03-08T15:04:02.038Z,8.83
2023-03-08T15:06:39.497Z,8.78
2023-03-08T15:09:10.069Z,8.89
2023-03-08T15:11:41.658Z,8.85
2023-03-08T15:14:11.606Z,9.00
2023-03-08T15:16:44.476Z,9.05
2023-03-08T15:19:13.834Z,9.11
2023-03-08T15:21:45.443Z,9.07
2023-03-08T15:24:17.370Z,9.06
2023-03-08T15:26:45.271Z,9.06
2023-03-08T15:29:40.005Z,9.03
2023-03-08T15:32:07.667Z,8.99
2023-03-08T15:34:36.589Z,8.98
2023-03-08T15:37:07.343Z,8.96
2023-03-08T15:39:35.820Z,8.97
2023-03-08T15:42:02.356Z,8.97
2023-03-08T15:44:29.182Z,8.96
2023-03-08T15:46:55.653Z,9.00
2023-03-08T15:49:27.029Z,9.02
2023-03-08T15:51:56.612Z,9.02
2023-03-08T15:54:30.681Z,9.02
2023-03-08T15:57:00.232Z,9.03
2023-03-08T15:59:36.715Z,8.97
2023-03-08T16:02:06.972Z,8.96
2023-03-08T16:04:33.507Z,9.02
2023-03-08T16:07:05.651Z,9.08
2023-03-08T16:09:34.860Z,9.10
2023-03-08T16:12:03.688Z,9.18
2023-03-08T16:14:30.321Z,9.31
2023-03-08T16:16:59.574Z,9.42
2023-03-08T16:19:28.532Z,9.44
2023-03-08T16:21:55.037Z,9.57
2023-03-08T16:24:24.203Z,9.64
2023-03-08T16:26:50.707Z,9.64
2023-03-08T16:29:17.379Z,9.69
2023-03-08T16:31:51.031Z,9.64
2023-03-08T16:34:26.574Z,9.56
2023-03-08T16:36:57.823Z,9.63
2023-03-08T16:39:27.530Z,9.62
2023-03-08T16:41:54.181Z,9.63
2023-03-08T16:44:26.446Z,9.63
2023-03-08T16:46:53.023Z,9.59
2023-03-08T16:49:22.628Z,9.56
2023-03-08T16:51:52.386Z,9.52
2023-03-08T16:54:23.475Z,9.48
2023-03-08T16:56:50.586Z,9.45
2023-03-08T16:59:17.594Z,9.41
2023-03-08T17:01:44.586Z,9.34
2023-03-08T17:04:11.601Z,9.28
2023-03-08T17:06:39.167Z,9.32
2023-03-08T17:09:05.819Z,9.29
2023-03-08T17:11:37.356Z,9.23
2023-03-08T17:14:07.354Z,9.17
2023-03-08T17:16:35.556Z,9.13
2023-03-08T17:19:04.535Z,9.20
2023-03-08T17:21:38.891Z,9.16
2023-03-08T17:24:07.615Z,9.10
2023-03-08T17:26:35.796Z,9.08
2023-03-08T17:29:05.230Z,9.07
2023-03-08T17:31:34.039Z,9.07
2023-03-08T17:34:04.891Z,9.06
2023-03-08T17:36:37.177Z,9.09
2023-03-08T17:39:13.717Z,9.08
2023-03-08T17:41:50.651Z,9.02
2023-03-08T17:44:17.181Z,8.98
2023-03-08T17:46:44.039Z,8.96
2023-03-08T17:49:13.045Z,8.91
2023-03-08T17:51:39.900Z,8.90
2023-03-08T17:54:16.709Z,8.84
2023-03-08T17:56:50.892Z,8.81
2023-03-08T17:59:17.517Z,8.80
2023-03-08T18:01:48.340Z,8.79
2023-03-08T18:04:15.178Z,8.84
2023-03-08T18:06:48.881Z,8.82
2023-03-08T18:09:16.810Z,8.76
2023-03-08T18:11:49.975Z,8.76
2023-03-08T18:14:31.233Z,8.66
2023-03-08T18:17:06.489Z,8.66
2023-03-08T18:19:33.176Z,8.72
2023-03-08T18:22:07.870Z,8.74
2023-03-08T18:24:36.806Z,8.74
2023-03-08T18:27:05.392Z,8.69
2023-03-08T18:29:34.134Z,8.67
2023-03-08T18:32:04.316Z,8.68
2023-03-08T18:34:30.886Z,8.68
2023-03-08T18:36:58.793Z,8.70
2023-03-08T18:39:31.424Z,8.68
2023-03-08T18:42:06.819Z,8.74
2023-03-08T18:44:44.241Z,8.68
2023-03-08T18:47:10.739Z,8.71
2023-03-08T18:50:02.771Z,8.74
2023-03-08T18:52:30.909Z,8.70
2023-03-08T18:54:57.832Z,8.70
2023-03-08T18:57:24.265Z,8.64
2023-03-08T18:59:51.161Z,8.64
2023-03-08T19:02:27.588Z,8.78
2023-03-08T19:04:55.228Z,8.82
2023-03-08T19:07:26.570Z,8.80
2023-03-08T19:10:00.268Z,8.77
2023-03-08T19:12:33.795Z,8.77
2023-03-08T19:15:01.864Z,8.75
2023-03-08T19:17:28.466Z,8.76
2023-03-08T19:19:55.095Z,8.72
2023-03-08T19:22:21.675Z,8.73
2023-03-08T19:24:48.536Z,8.73
2023-03-08T19:27:17.259Z,8.62
2023-03-08T19:29:46.023Z,8.73
2023-03-08T19:32:14.936Z,8.70
2023-03-08T19:34:44.930Z,8.71
2023-03-08T19:37:15.672Z,8.74
2023-03-08T19:39:47.087Z,8.75
2023-03-08T19:42:18.340Z,8.69
2023-03-08T19:44:48.362Z,8.72
2023-03-08T19:47:18.456Z,8.68
2023-03-08T19:49:47.868Z,8.66
2023-03-08T19:52:14.447Z,8.65
2023-03-08T19:54:42.110Z,8.77
2023-03-08T19:57:10.200Z,8.67
2023-03-08T19:59:41.357Z,8.62
2023-03-08T20:02:08.976Z,8.55
2023-03-08T20:04:41.232Z,8.56
2023-03-08T20:07:08.054Z,8.54
2023-03-08T20:09:34.481Z,8.55
2023-03-08T20:12:01.024Z,8.53
2023-03-08T20:14:34.202Z,8.51
2023-03-08T20:17:01.978Z,8.63
2023-03-08T20:19:31.989Z,8.59
2023-03-08T20:22:01.044Z,8.67
2023-03-08T20:24:27.852Z,8.70
2023-03-08T20:26:54.349Z,8.71
2023-03-08T20:29:25.652Z,8.73
2023-03-08T20:31:52.113Z,8.67
2023-03-08T20:34:20.953Z,8.63
2023-03-08T20:36:47.486Z,8.63
2023-03-08T20:39:14.097Z,8.62
2023-03-08T20:41:40.544Z,8.65
2023-03-08T20:44:07.131Z,8.70
2023-03-08T20:46:34.498Z,8.74
2023-03-08T20:49:01.582Z,8.70
2023-03-08T20:51:28.422Z,8.66
2023-03-08T20:53:57.786Z,8.65
2023-03-08T20:56:27.425Z,8.63
2023-03-08T20:58:57.799Z,8.61
2023-03-08T21:01:35.117Z,8.63
2023-03-08T21:04:11.326Z,8.60
2023-03-08T21:06:44.880Z,8.64
2023-03-08T21:09:15.124Z,8.57
2023-03-08T21:11:42.359Z,8.66
2023-03-08T21:14:14.250Z,8.63
2023-03-08T21:16:41.423Z,8.57
2023-03-08T21:19:15.784Z,8.55
2023-03-08T21:21:53.460Z,8.53
2023-03-08T21:24:23.665Z,8.53
2023-03-08T21:27:04.993Z,8.46
2023-03-08T21:29:36.784Z,8.51
2023-03-08T21:32:08.337Z,8.53
2023-03-08T21:34:34.965Z,8.49
2023-03-08T21:37:06.096Z,8.49
2023-03-08T21:39:35.081Z,8.51
2023-03-08T21:42:01.794Z,8.52
2023-03-08T21:44:32.075Z,8.51
2023-03-08T21:47:04.143Z,8.49
2023-03-08T21:49:32.744Z,8.48
2023-03-08T21:52:01.726Z,8.46
2023-03-08T21:54:34.230Z,8.47
2023-03-08T21:57:01.033Z,8.44
2023-03-08T21:59:39.076Z,8.45
2023-03-08T22:02:14.662Z,8.48
2023-03-08T22:04:43.579Z,8.57
2023-03-08T22:07:12.515Z,8.63
2023-03-08T22:09:52.060Z,8.63
2023-03-08T22:12:20.050Z,8.62
2023-03-08T22:14:46.857Z,8.67
2023-03-08T22:17:17.237Z,8.64
2023-03-08T22:19:44.082Z,8.66
2023-03-08T22:22:11.550Z,8.74
2023-03-08T22:24:38.023Z,8.75
2023-03-08T22:27:07.127Z,8.78
2023-03-08T22:29:34.712Z,8.80
2023-03-08T22:32:01.576Z,8.99
2023-03-08T22:34:28.265Z,8.91
2023-03-08T22:36:57.593Z,8.90
2023-03-08T22:39:24.228Z,9.04
2023-03-08T22:41:55.616Z,9.11
2023-03-08T22:44:22.960Z,9.25
2023-03-08T22:46:52.091Z,9.24
2023-03-08T22:49:18.699Z,9.22
2023-03-08T22:51:45.432Z,9.18
2023-03-08T22:54:19.759Z,9.25
2023-03-08T22:57:05.805Z,9.27
2023-03-08T22:59:32.475Z,9.27
2023-03-08T23:01:59.075Z,9.27
2023-03-08T23:04:25.903Z,9.25
2023-03-08T23:06:54.876Z,9.23
2023-03-08T23:09:29.696Z,9.20
2023-03-08T23:12:02.745Z,9.20
2023-03-08T23:14:29.188Z,9.20
2023-03-08T23:17:01.318Z,9.19
2023-03-08T23:19:28.263Z,9.14
2023-03-08T23:22:04.972Z,9.26
2023-03-08T23:24:31.467Z,9.29
2023-03-08T23:27:03.816Z,9.31
2023-03-08T23:29:33.944Z,9.35
2023-03-08T23:32:00.672Z,9.39
2023-03-08T23:34:38.039Z,9.40
2023-03-08T23:37:07.218Z,9.50
2023-03-08T23:39:36.884Z,9.57
2023-03-08T23:42:09.009Z,9.49
2023-03-08T23:44:39.457Z,9.58
2023-03-08T23:47:06.262Z,9.63
2023-03-08T23:49:35.665Z,9.63
2023-03-08T23:52:04.837Z,9.64
2023-03-08T23:54:31.365Z,9.67
2023-03-08T23:56:57.906Z,9.78
2023-03-08T23:59:24.701Z,9.69
